Time;durP1;ratioP1;P1;durP2;ratioP2;P2;SDS_P1;SDS_P2;PMS_P1;PMS_P2;Temp;Humidity;BMP_temperature;BMP_pressure;BME280_temperature;BME280_humidity;BME280_pressure;Samples;Min_cycle;Max_cycle;Signal;HPM_P1;HPM_P2
2022/06/22 00:02:14;;;;;;;3.42;1.60;;;18.80;65.00;;;;;;5031223;28;20045;-75
2022/06/22 00:04:51;;;;;;;4.07;1.30;;;18.80;64.90;;;;;;5032778;28;20045;-75
2022/06/22 00:07:33;;;;;;;2.22;1.10;;;18.70;65.00;;;;;;5027697;28;20048;-74
2022/06/22 00:10:17;;;;;;;2.07;1.20;;;18.70;65.00;;;;;;5030255;28;20761;-75
2022/06/22 00:13:13;;;;;;;1.95;1.08;;;18.70;65.20;;;;;;5029885;28;20045;-75
2022/06/22 00:15:46;;;;;;;2.53;1.17;;;18.70;65.10;;;;;;5033971;28;20057;-75
2022/06/22 00:18:35;;;;;;;2.05;1.10;;;18.70;65.70;;;;;;5035669;28;20522;-75
2022/06/22 00:21:06;;;;;;;1.88;1.13;;;18.60;65.40;;;;;;5032418;28;20048;-75
2022/06/22 00:23:35;;;;;;;1.67;1.08;;;18.60;65.40;;;;;;5037601;28;20041;-75
2022/06/22 00:26:22;;;;;;;2.45;1.45;;;18.60;65.80;;;;;;5031644;28;20476;-75
2022/06/22 00:29:03;;;;;;;3.08;0.90;;;18.50;66.40;;;;;;5032898;28;20476;-75
2022/06/22 00:31:46;;;;;;;4.68;1.27;;;18.50;67.50;;;;;;5029423;28;20060;-75
2022/06/22 00:34:18;;;;;;;3.58;1.65;;;18.50;67.10;;;;;;5025887;28;20557;-75
2022/06/22 00:37:05;;;;;;;2.58;1.58;;;18.40;67.70;;;;;;5037627;28;20045;-75
2022/06/22 00:39:38;;;;;;;4.22;1.80;;;18.40;67.30;;;;;;5030572;28;20063;-75
2022/06/22 00:42:14;;;;;;;3.17;1.42;;;18.30;67.60;;;;;;5030660;28;20041;-74
2022/06/22 00:44:56;;;;;;;4.15;1.92;;;18.30;67.50;;;;;;5034824;28;20033;-75
2022/06/22 00:47:35;;;;;;;3.45;1.30;;;18.20;68.00;;;;;;5029152;28;20476;-75
2022/06/22 00:50:26;;;;;;;2.15;1.48;;;18.20;68.20;;;;;;5029278;28;20120;-75
2022/06/22 00:53:43;;;;;;;3.47;1.50;;;18.20;68.10;;;;;;5028370;28;23899;-75
2022/06/22 00:56:41;;;;;;;2.20;1.25;;;18.10;67.80;;;;;;5018341;28;20141;-75
2022/06/22 00:59:23;;;;;;;4.85;1.63;;;18.10;68.60;;;;;;5037530;28;20037;-74
2022/06/22 01:01:53;;;;;;;7.63;1.80;;;18.10;69.40;;;;;;5034521;28;20049;-75
2022/06/22 01:04:52;;;;;;;3.60;1.98;;;18.10;70.10;;;;;;5033485;28;20044;-75
2022/06/22 01:07:34;;;;;;;3.60;1.45;;;18.10;70.40;;;;;;5028023;28;20055;-74
2022/06/22 01:10:13;;;;;;;4.50;1.75;;;18.00;70.10;;;;;;5015802;28;20127;-74
2022/06/22 01:12:59;;;;;;;2.80;1.90;;;18.00;70.70;;;;;;5035015;28;20069;-75
2022/06/22 01:15:36;;;;;;;2.80;1.27;;;18.00;70.90;;;;;;5043973;28;20041;-75
2022/06/22 01:18:29;;;;;;;2.42;1.60;;;18.00;70.90;;;;;;5030113;28;20049;-75
2022/06/22 01:21:17;;;;;;;3.97;1.80;;;17.90;71.30;;;;;;5029096;28;20036;-75
2022/06/22 01:24:13;;;;;;;2.80;1.52;;;17.90;71.30;;;;;;5032246;28;20403;-75
2022/06/22 01:26:59;;;;;;;5.22;2.00;;;17.80;71.60;;;;;;5029793;28;20518;-75
2022/06/22 01:29:27;;;;;;;5.93;2.10;;;17.80;71.10;;;;;;5029272;28;20035;-74
2022/06/22 01:32:14;;;;;;;4.28;2.15;;;17.80;72.20;;;;;;5016348;28;20045;-75
2022/06/22 01:34:47;;;;;;;6.30;2.47;;;17.80;72.20;;;;;;5028885;28;20464;-75
2022/06/22 01:37:20;;;;;;;4.70;2.47;;;17.80;72.40;;;;;;5034321;28;20095;-75
2022/06/22 01:39:47;;;;;;;4.15;2.25;;;17.70;72.20;;;;;;5027793;28;20037;-74
2022/06/22 01:42:38;;;;;;;4.30;2.17;;;17.60;72.30;;;;;;5032017;28;20052;-75
2022/06/22 01:45:16;;;;;;;6.85;2.47;;;17.60;72.70;;;;;;5016397;28;20064;-75
2022/06/22 01:48:08;;;;;;;3.50;1.80;;;17.70;72.50;;;;;;5029493;28;20472;-75
2022/06/22 01:50:42;;;;;;;4.80;2.23;;;17.70;73.20;;;;;;5022620;28;20172;-75
2022/06/22 01:53:47;;;;;;;5.05;2.53;;;17.70;73.20;;;;;;5032326;28;20073;-75
2022/06/22 01:56:43;;;;;;;4.15;2.03;;;17.60;73.10;;;;;;5016703;28;20059;-75
2022/06/22 01:59:31;;;;;;;3.40;2.45;;;17.70;73.10;;;;;;5035396;28;20041;-75
2022/06/22 02:02:06;;;;;;;4.57;2.30;;;17.60;73.70;;;;;;5028242;28;20128;-74
2022/06/22 02:04:40;;;;;;;6.03;2.72;;;17.50;74.00;;;;;;5042220;28;20049;-74
2022/06/22 02:10:23;;;;;;;2.10;1.67;;;17.50;74.70;;;;;;5028903;28;20041;-74
2022/06/22 02:12:57;;;;;;;2.92;1.80;;;17.40;74.10;;;;;;5030916;28;20061;-75
2022/06/22 02:15:54;;;;;;;3.45;1.80;;;17.40;74.00;;;;;;5028882;28;20050;-75
2022/06/22 02:18:36;;;;;;;4.65;1.73;;;17.30;74.60;;;;;;5021441;28;20044;-75
2022/06/22 02:21:18;;;;;;;2.58;1.40;;;17.40;74.50;;;;;;5025169;28;20385;-75
2022/06/22 02:24:09;;;;;;;2.23;1.33;;;17.30;74.40;;;;;;5016117;28;20471;-75
2022/06/22 02:26:46;;;;;;;2.72;1.45;;;17.30;74.70;;;;;;5028667;28;20289;-75
2022/06/22 02:29:17;;;;;;;4.75;1.67;;;17.30;74.50;;;;;;5027720;28;20408;-75
2022/06/22 02:31:46;;;;;;;4.47;1.65;;;17.30;74.60;;;;;;5029006;28;20041;-75
2022/06/22 02:34:16;;;;;;;5.70;1.75;;;17.20;74.80;;;;;;5028434;28;20420;-75
2022/06/22 02:36:45;;;;;;;3.30;1.30;;;17.20;75.10;;;;;;5016152;28;20118;-75
2022/06/22 02:39:15;;;;;;;4.25;1.23;;;17.20;75.60;;;;;;5028199;28;20068;-74
2022/06/22 02:44:33;;;;;;;3.67;1.20;;;17.20;76.00;;;;;;5027188;28;20051;-75
2022/06/22 02:47:22;;;;;;;2.42;1.30;;;17.20;75.60;;;;;;5033568;28;20041;-74
2022/06/22 02:50:16;;;;;;;2.70;1.30;;;17.20;75.60;;;;;;5029294;28;20044;-75
2022/06/22 02:52:47;;;;;;;13.60;2.38;;;17.20;75.80;;;;;;5027169;28;20060;-74
2022/06/22 02:55:19;;;;;;;3.33;1.45;;;17.10;76.30;;;;;;5028439;28;20574;-75
2022/06/22 02:57:48;;;;;;;6.03;1.50;;;17.20;76.40;;;;;;5028851;28;20060;-74
2022/06/22 03:00:18;;;;;;;4.78;2.10;;;17.10;76.60;;;;;;5033784;28;20057;-75
2022/06/22 03:02:47;;;;;;;5.28;2.05;;;17.10;76.80;;;;;;5041901;28;20512;-75
2022/06/22 03:05:16;;;;;;;3.08;1.83;;;17.10;77.00;;;;;;5034164;28;20045;-74
2022/06/22 03:07:48;;;;;;;6.93;2.58;;;17.10;77.40;;;;;;5033621;28;20049;-75
2022/06/22 03:10:41;;;;;;;4.75;2.47;;;17.10;78.10;;;;;;5028109;28;20048;-75
2022/06/22 03:13:15;;;;;;;6.60;2.60;;;17.10;78.30;;;;;;5028614;28;20040;-75
2022/06/22 03:15:42;;;;;;;7.78;2.72;;;17.20;78.00;;;;;;5010213;28;20045;-74
2022/06/22 03:18:23;;;;;;;5.47;2.83;;;17.20;78.10;;;;;;5014967;28;20099;-75
2022/06/22 03:21:03;;;;;;;7.95;2.75;;;17.10;78.20;;;;;;5027100;28;20049;-74
2022/06/22 03:23:45;;;;;;;10.35;2.92;;;17.10;78.60;;;;;;5032112;28;20083;-75
2022/06/22 03:26:19;;;;;;;6.68;2.60;;;17.10;78.80;;;;;;5025549;28;20341;-75
2022/06/22 03:29:05;;;;;;;7.80;1.77;;;17.10;79.20;;;;;;5029394;28;20045;-75
2022/06/22 03:31:41;;;;;;;6.85;2.60;;;17.10;78.30;;;;;;5032700;28;20041;-75
2022/06/22 03:34:26;;;;;;;4.38;2.17;;;17.10;78.90;;;;;;5015547;28;20049;-74
2022/06/22 03:37:00;;;;;;;4.15;2.45;;;17.10;78.90;;;;;;5030142;28;20041;-75
2022/06/22 03:39:33;;;;;;;6.25;2.05;;;17.10;79.00;;;;;;5028201;28;20053;-75
2022/06/22 03:42:09;;;;;;;4.05;1.50;;;17.10;79.20;;;;;;5026035;28;20053;-75
2022/06/22 03:44:56;;;;;;;3.80;1.05;;;17.10;78.90;;;;;;5029652;28;20872;-74
2022/06/22 03:47:39;;;;;;;3.03;1.52;;;17.10;79.30;;;;;;5030225;28;20140;-75
2022/06/22 03:50:22;;;;;;;2.50;1.02;;;17.20;79.70;;;;;;5039406;28;20068;-75
2022/06/22 03:53:07;;;;;;;5.03;1.42;;;17.20;80.50;;;;;;5034747;28;20134;-75
2022/06/22 03:55:38;;;;;;;1.73;1.35;;;17.30;79.60;;;;;;5029928;28;20430;-75
2022/06/22 03:58:08;;;;;;;2.85;1.10;;;17.30;78.90;;;;;;5031873;28;20038;-75
2022/06/22 04:00:38;;;;;;;5.63;1.60;;;17.40;79.80;;;;;;5034936;28;20069;-75
2022/06/22 04:03:06;;;;;;;3.53;1.35;;;17.50;78.80;;;;;;5018177;28;20060;-75
2022/06/22 04:05:53;;;;;;;3.17;1.35;;;17.70;78.70;;;;;;5026974;28;20138;-75
2022/06/22 04:08:41;;;;;;;4.82;1.50;;;17.70;78.50;;;;;;5024043;28;20053;-74
2022/06/22 04:11:28;;;;;;;3.17;1.85;;;17.80;78.50;;;;;;5017217;28;20051;-75
2022/06/22 04:13:57;;;;;;;3.70;1.60;;;17.80;77.90;;;;;;5030851;28;20136;-75
2022/06/22 04:16:32;;;;;;;2.88;1.38;;;17.90;78.30;;;;;;5019423;28;20052;-75
2022/06/22 04:19:17;;;;;;;3.63;1.35;;;18.00;77.40;;;;;;5029008;28;20142;-75
2022/06/22 04:21:50;;;;;;;3.83;1.25;;;18.10;77.80;;;;;;5028399;28;20037;-75
2022/06/22 04:24:26;;;;;;;3.28;1.50;;;18.20;76.90;;;;;;5020037;28;20056;-75
2022/06/22 04:27:25;;;;;;;5.47;1.88;;;18.20;75.40;;;;;;5031136;28;20040;-75
2022/06/22 04:30:09;;;;;;;4.88;1.85;;;18.30;75.50;;;;;;5032941;28;20041;-75
2022/06/22 04:32:42;;;;;;;2.88;1.20;;;18.40;75.00;;;;;;5029753;28;20057;-75
2022/06/22 04:35:18;;;;;;;2.88;1.45;;;18.40;74.40;;;;;;5022876;28;20076;-75
2022/06/22 04:37:52;;;;;;;5.07;1.00;;;18.60;74.70;;;;;;5036136;28;20041;-75
2022/06/22 04:40:35;;;;;;;4.75;0.95;;;18.60;73.70;;;;;;5034758;28;20050;-75
2022/06/22 04:43:04;;;;;;;3.80;1.70;;;18.60;74.30;;;;;;5027216;28;20332;-75
2022/06/22 04:45:40;;;;;;;3.08;1.55;;;18.70;74.00;;;;;;5027440;28;20788;-75
2022/06/22 04:48:29;;;;;;;3.97;1.10;;;18.70;75.40;;;;;;5008363;28;20815;-75
2022/06/22 04:51:00;;;;;;;2.72;1.08;;;18.80;75.00;;;;;;4981642;28;20049;-75
2022/06/22 04:53:35;;;;;;;3.25;1.50;;;18.90;73.90;;;;;;4984328;28;20060;-74
2022/06/22 04:56:06;;;;;;;3.42;1.42;;;19.10;74.80;;;;;;4973675;28;20060;-74
2022/06/22 04:58:55;;;;;;;7.28;2.03;;;19.20;74.90;;;;;;4984585;28;20263;-77
2022/06/22 05:01:33;;;;;;;6.22;2.05;;;19.40;74.60;;;;;;4982678;28;22404;-75
2022/06/22 05:04:09;;;;;;;5.80;1.40;;;19.50;74.00;;;;;;4984936;28;20045;-77
2022/06/22 05:06:55;;;;;;;6.25;1.20;;;19.60;73.00;;;;;;4985312;28;20051;-77
2022/06/22 05:09:36;;;;;;;1.77;0.80;;;19.70;72.30;;;;;;4984999;28;20046;-76
2022/06/22 05:12:13;;;;;;;3.50;1.00;;;19.90;73.70;;;;;;4969241;28;20176;-76
2022/06/22 05:14:41;;;;;;;1.23;0.70;;;20.10;73.10;;;;;;4984759;28;20087;-76
2022/06/22 05:17:27;;;;;;;2.53;0.63;;;20.20;72.20;;;;;;4988325;28;20057;-76
2022/06/22 05:20:01;;;;;;;2.33;0.88;;;20.30;71.40;;;;;;4995034;28;20049;-76
2022/06/22 05:22:28;;;;;;;5.07;0.90;;;20.50;70.80;;;;;;4985866;28;20053;-76
2022/06/22 05:25:00;;;;;;;6.53;0.95;;;20.60;71.70;;;;;;4981882;28;21309;-76
2022/06/22 05:27:40;;;;;;;1.40;0.90;;;20.70;71.40;;;;;;4985113;28;20053;-76
2022/06/22 05:30:09;;;;;;;3.50;0.60;;;20.90;70.20;;;;;;4970772;28;20057;-76
2022/06/22 05:32:45;;;;;;;3.38;0.80;;;21.00;69.40;;;;;;4985753;28;20049;-75
2022/06/22 05:35:18;;;;;;;2.67;0.90;;;21.20;69.30;;;;;;4994343;28;20048;-74
2022/06/22 05:37:50;;;;;;;3.50;0.65;;;21.40;68.80;;;;;;4982803;28;20140;-74
2022/06/22 05:40:21;;;;;;;5.72;0.75;;;21.50;69.00;;;;;;5001634;28;20055;-75
2022/06/22 05:42:49;;;;;;;3.53;0.82;;;21.60;68.80;;;;;;4982015;28;20424;-74
2022/06/22 05:45:19;;;;;;;4.20;0.70;;;21.70;67.30;;;;;;4985483;28;20096;-75
2022/06/22 05:47:46;;;;;;;3.60;1.08;;;21.90;63.90;;;;;;4984681;28;20742;-74
2022/06/22 05:50:33;;;;;;;3.25;0.60;;;22.20;63.90;;;;;;4977841;28;20998;-74
2022/06/22 05:53:12;;;;;;;3.95;0.60;;;22.20;62.20;;;;;;4986964;28;20057;-74
2022/06/22 05:55:52;;;;;;;2.47;0.40;;;22.40;62.00;;;;;;4983516;28;20075;-74
2022/06/22 05:58:43;;;;;;;2.35;0.38;;;22.50;60.50;;;;;;4983164;28;20049;-73
2022/06/22 06:01:22;;;;;;;1.23;0.30;;;22.50;58.00;;;;;;4981839;28;20069;-74
2022/06/22 06:04:14;;;;;;;2.30;0.40;;;22.70;58.30;;;;;;4981070;28;20053;-74
2022/06/22 06:06:43;;;;;;;2.05;0.40;;;22.90;57.30;;;;;;4995937;28;20041;-75
2022/06/22 06:09:20;;;;;;;2.15;0.50;;;23.00;57.90;;;;;;4980711;28;20049;-75
2022/06/22 06:12:01;;;;;;;1.98;0.30;;;23.20;57.50;;;;;;4975694;28;20045;-75
2022/06/22 06:14:39;;;;;;;2.47;0.50;;;23.20;56.90;;;;;;4987723;28;20075;-75
2022/06/22 06:17:24;;;;;;;1.38;0.60;;;23.10;57.30;;;;;;4986455;28;20579;-75
2022/06/22 06:19:53;;;;;;;3.25;0.60;;;23.20;56.50;;;;;;4983742;28;22124;-75
2022/06/22 06:22:22;;;;;;;2.55;0.75;;;23.30;57.50;;;;;;4997664;28;20056;-75
2022/06/22 06:28:02;;;;;;;1.50;0.47;;;23.40;55.50;;;;;;4980347;28;20049;-75
2022/06/22 06:30:37;;;;;;;2.53;0.60;;;23.50;53.80;;;;;;4970953;28;20145;-75
2022/06/22 06:33:19;;;;;;;1.17;0.40;;;23.40;54.20;;;;;;4981442;28;20057;-75
2022/06/22 06:36:06;;;;;;;2.10;0.40;;;23.40;55.20;;;;;;4981802;28;20126;-76
2022/06/22 06:38:43;;;;;;;2.50;0.30;;;23.50;54.50;;;;;;4986788;28;20053;-76
2022/06/22 06:41:24;;;;;;;1.27;0.55;;;23.50;55.30;;;;;;4984502;28;20056;-76
2022/06/22 06:43:51;;;;;;;1.90;0.30;;;23.60;54.70;;;;;;4985054;28;20051;-77
2022/06/22 06:46:38;;;;;;;2.10;0.45;;;23.40;54.60;;;;;;4984979;28;20655;-76
2022/06/22 06:49:32;;;;;;;1.00;0.40;;;23.50;54.40;;;;;;4981860;28;20511;-76
2022/06/22 06:52:03;;;;;;;3.03;0.40;;;23.50;55.30;;;;;;4982171;28;20071;-76
2022/06/22 06:54:55;;;;;;;3.45;0.57;;;23.40;55.30;;;;;;4983545;28;20450;-75
2022/06/22 06:57:23;;;;;;;1.25;0.20;;;23.10;54.80;;;;;;4982636;28;20149;-75
2022/06/22 06:59:54;;;;;;;0.95;0.28;;;23.20;54.90;;;;;;4980081;28;20041;-76
2022/06/22 07:02:32;;;;;;;1.20;0.30;;;23.20;53.80;;;;;;4988731;28;20520;-76
2022/06/22 07:05:01;;;;;;;2.28;0.50;;;23.30;54.50;;;;;;4975715;28;20061;-75
2022/06/22 07:07:38;;;;;;;1.73;0.20;;;23.50;54.60;;;;;;4991644;28;20053;-77
2022/06/22 07:10:14;;;;;;;2.83;0.30;;;23.90;51.80;;;;;;5014056;28;20120;-76
2022/06/22 07:12:59;;;;;;;6.15;1.10;;;24.10;51.50;;;;;;5002945;28;20041;-77
2022/06/22 07:15:35;;;;;;;1.17;0.20;;;23.70;51.20;;;;;;5006982;28;20060;-76
2022/06/22 07:18:36;;;;;;;1.15;0.40;;;23.50;52.20;;;;;;5020951;28;20063;-76
2022/06/22 07:21:15;;;;;;;1.58;0.70;;;23.60;51.80;;;;;;5002555;28;20496;-76
2022/06/22 07:23:54;;;;;;;2.88;0.38;;;24.10;51.10;;;;;;4993039;28;20155;-74
2022/06/22 07:26:52;;;;;;;1.55;0.38;;;24.50;50.50;;;;;;5001443;28;20603;-75
2022/06/22 07:29:40;;;;;;;2.35;0.20;;;24.00;49.80;;;;;;4988105;28;20727;-77
2022/06/22 07:32:37;;;;;;;1.95;0.25;;;24.20;50.40;;;;;;5002120;28;20057;-75
2022/06/22 07:35:28;;;;;;;5.97;0.60;;;24.40;49.40;;;;;;4982216;28;21891;-76
2022/06/22 07:38:07;;;;;;;0.43;0.20;;;24.00;49.00;;;;;;4995530;28;20071;-75
2022/06/22 07:40:37;;;;;;;1.55;0.20;;;24.10;49.60;;;;;;5009542;28;23992;-75
2022/06/22 07:43:10;;;;;;;2.70;0.20;;;24.30;48.70;;;;;;4992376;28;21082;-75
2022/06/22 07:45:39;;;;;;;1.20;0.30;;;24.70;48.80;;;;;;5019717;28;20053;-75
2022/06/22 07:48:17;;;;;;;0.57;0.20;;;24.60;46.80;;;;;;4997834;28;20044;-75
2022/06/22 07:50:55;;;;;;;1.77;0.20;;;24.90;47.40;;;;;;4996343;28;22442;-74
2022/06/22 07:53:41;;;;;;;0.30;0.17;;;24.80;47.10;;;;;;4997491;28;20052;-77
2022/06/22 07:56:19;;;;;;;3.60;0.20;;;25.00;47.00;;;;;;5022193;28;20793;-77
2022/06/22 07:58:52;;;;;;;1.45;0.20;;;24.70;46.10;;;;;;5009699;28;20071;-77
2022/06/22 08:01:33;;;;;;;3.15;0.30;;;25.10;46.90;;;;;;5004516;28;22308;-77
2022/06/22 08:04:06;;;;;;;1.25;0.20;;;25.10;47.50;;;;;;5001307;28;20046;-77
2022/06/22 08:07:00;;;;;;;0.57;0.20;;;25.10;47.20;;;;;;4980845;28;20054;-76
2022/06/22 08:09:45;;;;;;;1.50;0.20;;;25.10;46.80;;;;;;5013045;28;20048;-76
2022/06/22 08:12:23;;;;;;;0.82;0.30;;;25.00;48.00;;;;;;5022535;28;20362;-77
2022/06/22 08:14:53;;;;;;;4.05;0.40;;;25.10;48.40;;;;;;5013468;28;20093;-76
2022/06/22 08:17:48;;;;;;;0.93;0.60;;;25.00;48.30;;;;;;5006779;28;20800;-76
2022/06/22 08:20:24;;;;;;;2.05;0.30;;;25.00;47.40;;;;;;4991363;28;20085;-76
2022/06/22 08:22:53;;;;;;;1.88;0.40;;;25.30;49.30;;;;;;5002471;28;20858;-75
2022/06/22 08:25:44;;;;;;;4.97;0.20;;;25.30;48.80;;;;;;5003508;28;20056;-76
2022/06/22 08:28:19;;;;;;;1.10;0.32;;;25.40;48.60;;;;;;5012184;28;20045;-76
2022/06/22 08:30:49;;;;;;;2.08;0.30;;;25.50;48.20;;;;;;5005491;28;20053;-76
2022/06/22 08:33:36;;;;;;;0.50;0.30;;;25.60;45.90;;;;;;4996407;28;21135;-76
2022/06/22 08:36:26;;;;;;;0.50;0.20;;;25.30;45.70;;;;;;4993399;28;21983;-76
2022/06/22 08:39:12;;;;;;;0.60;0.20;;;25.30;46.30;;;;;;4992932;28;20045;-76
2022/06/22 08:41:57;;;;;;;0.52;0.30;;;25.40;44.80;;;;;;5004977;28;20064;-75
2022/06/22 08:45:06;;;;;;;2.90;0.40;;;25.40;45.90;;;;;;5007378;28;20045;-76
2022/06/22 08:47:42;;;;;;;2.42;0.30;;;25.50;46.50;;;;;;5000621;28;23820;-76
2022/06/22 08:50:24;;;;;;;1.08;0.30;;;25.60;46.00;;;;;;5000743;28;20049;-76
2022/06/22 08:53:19;;;;;;;3.00;0.38;;;25.80;45.30;;;;;;5007867;28;20123;-76
2022/06/22 08:56:19;;;;;;;0.73;0.20;;;25.60;44.40;;;;;;5009847;28;20057;-76
2022/06/22 08:59:14;;;;;;;4.22;0.20;;;25.40;44.20;;;;;;5024649;28;20099;-76
2022/06/22 09:01:58;;;;;;;1.58;0.20;;;25.70;44.30;;;;;;4996445;28;20057;-76
2022/06/22 09:04:51;;;;;;;0.80;0.20;;;25.70;43.80;;;;;;4991215;28;20056;-76
2022/06/22 09:07:18;;;;;;;0.47;0.20;;;25.60;43.00;;;;;;4980062;28;21037;-76
2022/06/22 09:09:51;;;;;;;1.13;0.10;;;25.70;42.90;;;;;;4996791;28;20433;-75
2022/06/22 09:12:42;;;;;;;0.43;0.20;;;25.90;43.40;;;;;;5005551;28;22489;-77
2022/06/22 09:15:22;;;;;;;2.05;0.20;;;25.80;42.50;;;;;;5004242;28;20467;-75
2022/06/22 09:18:09;;;;;;;9.65;0.40;;;25.80;42.30;;;;;;5003907;28;20053;-76
2022/06/22 09:20:49;;;;;;;1.00;0.20;;;25.70;42.70;;;;;;5013852;28;21010;-76
2022/06/22 09:23:28;;;;;;;0.35;0.10;;;25.70;42.30;;;;;;5008336;28;22161;-76
2022/06/22 09:26:14;;;;;;;6.07;0.32;;;25.80;42.40;;;;;;4995527;28;22545;-76
2022/06/22 09:29:01;;;;;;;1.42;0.17;;;25.80;43.20;;;;;;4990512;28;22225;-76
2022/06/22 09:31:47;;;;;;;;;;;25.70;41.60;;;;;;5002782;28;20052;-76
2022/06/22 09:34:41;;;;;;;0.93;0.10;;;25.60;41.40;;;;;;5006163;28;20313;-76
2022/06/22 09:37:21;;;;;;;2.50;0.20;;;25.90;43.50;;;;;;4998305;28;20061;-76
2022/06/22 09:40:13;;;;;;;2.90;0.20;;;26.20;43.30;;;;;;4988230;28;20300;-76
2022/06/22 09:43:19;;;;;;;1.10;0.30;;;25.90;40.60;;;;;;4987187;28;20064;-76
2022/06/22 09:46:15;;;;;;;2.15;0.20;;;25.80;41.80;;;;;;4998799;28;20051;-76
2022/06/22 09:49:12;;;;;;;0.65;0.35;;;25.90;43.50;;;;;;5015367;28;20045;-76
2022/06/22 09:51:45;;;;;;;1.05;0.10;;;25.90;41.30;;;;;;5025643;28;20049;-76
2022/06/22 09:58:04;;;;;;;1.73;0.20;;;26.00;40.40;;;;;;4993758;28;20056;-75
2022/06/22 10:00:57;;;;;;;1.38;0.10;;;26.00;42.90;;;;;;4999437;28;20053;-76
2022/06/22 10:03:43;;;;;;;1.98;0.10;;;26.10;39.60;;;;;;5001881;28;20049;-76
2022/06/22 10:06:29;;;;;;;1.48;0.10;;;26.10;39.60;;;;;;4971884;28;20083;-76
2022/06/22 10:09:11;;;;;;;1.13;0.20;;;26.10;40.00;;;;;;4992992;28;20804;-76
2022/06/22 10:12:02;;;;;;;1.60;0.10;;;26.20;39.70;;;;;;4985898;28;20052;-76
2022/06/22 10:15:04;;;;;;;0.35;0.00;;;26.00;39.20;;;;;;4985016;28;20064;-77
2022/06/22 10:17:54;;;;;;;0.60;0.20;;;26.10;38.60;;;;;;4980231;28;20143;-76
2022/06/22 10:20:57;;;;;;;0.40;0.10;;;26.00;39.60;;;;;;4968479;28;20128;-75
2022/06/22 10:23:49;;;;;;;1.42;0.10;;;26.20;40.30;;;;;;4985913;28;20103;-75
2022/06/22 10:26:43;;;;;;;1.63;0.10;;;26.30;40.10;;;;;;4967095;28;22023;-75
2022/06/22 10:29:42;;;;;;;1.65;0.25;;;26.30;41.40;;;;;;5001279;28;20053;-75
2022/06/22 10:32:35;;;;;;;0.20;0.10;;;26.50;40.80;;;;;;4987665;28;20797;-76
2022/06/22 10:35:22;;;;;;;0.32;0.10;;;26.30;38.70;;;;;;4999995;28;22257;-77
2022/06/22 10:38:08;;;;;;;0.32;0.00;;;26.10;37.80;;;;;;4984788;28;20049;-76
2022/06/22 10:47:20;;;;;;;0.80;0.10;;;26.20;39.10;;;;;;4981957;28;22346;-76
2022/06/22 10:50:26;;;;;;;1.95;0.10;;;26.30;39.50;;;;;;4982065;28;20068;-75
2022/06/22 10:53:22;;;;;;;1.08;0.13;;;26.30;38.50;;;;;;4966880;28;20057;-75
2022/06/22 10:56:10;;;;;;;1.77;0.10;;;26.40;39.90;;;;;;4983446;28;20084;-76
2022/06/22 10:58:46;;;;;;;0.70;0.10;;;26.60;38.80;;;;;;4984047;28;20199;-76
2022/06/22 11:01:34;;;;;;;0.75;0.15;;;26.60;37.80;;;;;;4990881;28;22378;-75
2022/06/22 11:04:16;;;;;;;3.20;0.63;;;26.80;38.50;;;;;;4983197;28;20052;-76
2022/06/22 11:06:50;;;;;;;;;;;26.60;38.10;;;;;;4990016;28;20436;-75
2022/06/22 11:09:30;;;;;;;1.13;0.20;;;26.80;40.80;;;;;;4988835;28;21042;-75
2022/06/22 11:12:13;;;;;;;0.95;0.32;;;27.00;39.90;;;;;;4984909;28;20037;-75
2022/06/22 11:14:46;;;;;;;1.90;0.10;;;27.20;41.80;;;;;;4984205;28;22031;-75
2022/06/22 11:17:28;;;;;;;1.15;0.10;;;27.40;40.30;;;;;;5003309;28;22756;-77
2022/06/22 11:19:55;;;;;;;;;;;27.60;41.40;;;;;;4981982;28;20049;-75
2022/06/22 11:22:42;;;;;;;2.25;0.10;;;27.40;40.00;;;;;;4984213;28;20406;-74
2022/06/22 11:32:14;;;;;;;2.30;0.10;;;27.30;40.00;;;;;;4980015;28;20049;-75
2022/06/22 11:35:10;;;;;;;1.40;0.10;;;27.40;41.50;;;;;;4982449;28;20050;-75
2022/06/22 11:37:54;;;;;;;2.05;0.20;;;27.10;37.80;;;;;;4984445;28;20106;-76
2022/06/22 11:40:25;;;;;;;0.85;0.13;;;27.00;40.90;;;;;;4986295;28;20377;-75
2022/06/22 11:43:03;;;;;;;1.10;0.45;;;27.20;41.30;;;;;;4967414;28;20049;-76
2022/06/22 11:46:20;;;;;;;1.42;0.30;;;27.10;37.20;;;;;;4984826;28;20049;-76
2022/06/22 11:48:54;;;;;;;0.43;0.22;;;27.20;37.10;;;;;;4993828;28;20065;-75
2022/06/22 11:51:59;;;;;;;0.52;0.15;;;27.10;36.30;;;;;;4986598;28;20053;-75
2022/06/22 11:54:51;;;;;;;0.73;0.15;;;27.10;36.80;;;;;;4967797;28;20045;-75
2022/06/22 11:57:38;;;;;;;1.25;0.10;;;27.20;36.90;;;;;;4982942;28;20142;-75
2022/06/22 12:00:08;;;;;;;0.95;0.10;;;27.40;37.40;;;;;;4985521;28;22205;-75
2022/06/22 12:02:58;;;;;;;2.10;0.30;;;27.30;37.00;;;;;;4994205;28;20128;-76
2022/06/22 12:05:45;;;;;;;2.90;0.13;;;27.30;37.10;;;;;;4983611;28;20075;-75
2022/06/22 12:08:52;;;;;;;0.60;0.10;;;27.30;38.30;;;;;;4981787;28;20147;-75
2022/06/22 12:11:32;;;;;;;1.85;0.20;;;27.40;38.60;;;;;;4987453;28;20041;-75
2022/06/22 12:17:19;;;;;;;0.57;0.17;;;27.60;39.10;;;;;;4982425;28;20535;-75
2022/06/22 12:20:08;;;;;;;0.47;0.10;;;27.50;39.40;;;;;;4966730;28;20044;-75
2022/06/22 12:22:35;;;;;;;0.38;0.10;;;27.40;39.50;;;;;;4978078;28;20534;-75
2022/06/22 12:25:19;;;;;;;1.92;0.10;;;27.40;38.10;;;;;;4977995;28;20895;-76
2022/06/22 12:28:16;;;;;;;2.50;0.30;;;27.40;39.10;;;;;;4982466;28;20075;-75
2022/06/22 12:30:49;;;;;;;1.23;0.20;;;27.50;40.70;;;;;;4973926;28;20054;-75
2022/06/22 12:33:26;;;;;;;0.60;0.10;;;27.20;38.70;;;;;;4992625;28;20516;-75
2022/06/22 12:36:19;;;;;;;0.20;0.10;;;27.40;40.20;;;;;;4965385;28;20101;-76
2022/06/22 12:39:13;;;;;;;0.65;0.10;;;27.40;38.60;;;;;;4977237;28;20065;-76
2022/06/22 12:41:43;;;;;;;1.40;0.17;;;27.40;38.50;;;;;;4983092;28;20114;-76
2022/06/22 12:44:52;;;;;;;2.00;0.10;;;27.40;38.50;;;;;;4975232;28;20129;-75
2022/06/22 12:47:49;;;;;;;0.60;0.17;;;27.50;40.20;;;;;;4978512;28;20611;-76
2022/06/22 12:50:49;;;;;;;0.95;0.20;;;27.60;38.90;;;;;;4999586;28;20049;-76
2022/06/22 12:53:32;;;;;;;0.57;0.10;;;27.40;37.20;;;;;;4987202;28;20053;-75
2022/06/22 12:56:09;;;;;;;0.73;0.10;;;27.40;38.20;;;;;;4984978;28;20804;-75
2022/06/22 12:58:49;;;;;;;0.75;0.22;;;27.40;37.30;;;;;;4988308;28;20053;-75
2022/06/22 13:01:17;;;;;;;0.68;0.10;;;27.60;38.70;;;;;;4972771;28;20069;-75
2022/06/22 13:03:53;;;;;;;2.83;0.20;;;27.80;38.70;;;;;;4985841;28;20102;-75
2022/06/22 13:06:23;;;;;;;2.47;0.20;;;27.90;39.70;;;;;;4998864;28;22014;-75
2022/06/22 13:08:52;;;;;;;0.82;0.10;;;27.90;39.30;;;;;;4987478;28;20056;-75
2022/06/22 13:11:23;;;;;;;1.65;0.20;;;28.00;41.40;;;;;;4995724;28;20100;-77
2022/06/22 13:14:08;;;;;;;0.70;0.10;;;28.10;40.00;;;;;;4980141;28;20410;-75
2022/06/22 13:16:45;;;;;;;0.68;0.13;;;28.00;38.20;;;;;;4981184;28;20049;-75
2022/06/22 13:19:21;;;;;;;1.52;0.20;;;27.90;40.30;;;;;;4971855;28;20040;-76
2022/06/22 13:22:29;;;;;;;1.13;0.10;;;27.80;39.60;;;;;;4982230;28;20510;-75
2022/06/22 13:25:12;;;;;;;2.53;0.20;;;27.70;41.20;;;;;;4982324;28;20064;-76
2022/06/22 13:27:59;;;;;;;0.45;0.20;;;27.80;40.80;;;;;;4979563;28;20051;-79
2022/06/22 13:30:39;;;;;;;1.38;0.20;;;27.90;40.60;;;;;;4990883;28;20078;-76
2022/06/22 13:33:42;;;;;;;2.97;0.30;;;27.80;40.40;;;;;;4980525;28;22067;-75
2022/06/22 13:36:35;;;;;;;2.17;0.60;;;27.80;42.10;;;;;;5000525;28;20057;-75
2022/06/22 13:39:13;;;;;;;1.55;0.25;;;27.90;43.00;;;;;;5017659;28;20060;-75
2022/06/22 13:41:55;;;;;;;1.02;0.30;;;28.00;42.00;;;;;;5017547;28;20801;-75
2022/06/22 13:44:57;;;;;;;0.80;0.20;;;28.10;43.10;;;;;;5022802;28;21496;-76
2022/06/22 13:47:55;;;;;;;1.30;0.35;;;28.10;42.40;;;;;;5011019;28;23046;-75
2022/06/22 13:51:20;;;;;;;7.10;0.20;;;28.20;43.90;;;;;;5002779;28;20036;-76
2022/06/22 13:54:00;;;;;;;2.47;0.30;;;28.20;42.50;;;;;;5006411;28;20764;-75
2022/06/22 13:56:50;;;;;;;2.92;0.38;;;28.00;42.30;;;;;;5012415;28;20049;-76
2022/06/22 13:59:36;;;;;;;1.40;0.60;;;28.00;43.80;;;;;;5001256;28;20053;-75
2022/06/22 14:02:26;;;;;;;1.40;0.45;;;28.10;44.00;;;;;;4993129;28;20163;-74
2022/06/22 14:05:17;;;;;;;1.48;0.20;;;28.10;42.70;;;;;;5007055;28;20053;-75
2022/06/22 14:08:02;;;;;;;1.45;0.40;;;28.10;42.30;;;;;;4997313;28;20052;-75
2022/06/22 14:10:46;;;;;;;2.80;0.40;;;28.10;43.00;;;;;;5013730;28;20063;-75
2022/06/22 14:13:39;;;;;;;4.15;0.30;;;28.00;42.80;;;;;;4996737;28;20708;-75
2022/06/22 14:16:18;;;;;;;2.97;0.40;;;28.10;44.60;;;;;;4999510;28;20068;-75
2022/06/22 14:19:03;;;;;;;1.92;0.35;;;28.10;45.00;;;;;;4984665;28;20060;-76
2022/06/22 14:21:43;;;;;;;2.22;0.50;;;28.10;45.40;;;;;;4983561;28;20519;-75
2022/06/22 14:24:28;;;;;;;2.22;0.50;;;28.10;44.40;;;;;;5003708;28;20068;-75
2022/06/22 14:27:02;;;;;;;0.90;0.40;;;28.00;45.50;;;;;;5007605;28;20045;-76
2022/06/22 14:30:03;;;;;;;3.15;0.32;;;28.00;45.80;;;;;;5017247;28;20051;-75
2022/06/22 14:32:54;;;;;;;3.20;0.80;;;28.10;44.80;;;;;;5014090;28;20049;-76
2022/06/22 14:36:16;;;;;;;1.00;0.50;;;28.10;43.50;;;;;;5007154;28;20064;-75